Time;durP1;ratioP1;P1;durP2;ratioP2;P2;SDS_P1;SDS_P2;PMS_P1;PMS_P2;Temp;Humidity;BMP_temperature;BMP_pressure;BME280_temperature;BME280_humidity;BME280_pressure;Samples;Min_cycle;Max_cycle;Signal;HPM_P1;HPM_P2
2022/07/06 00:01:47;;;;;;;0.00;0.00;;;17.80;99.90;;;;;;5105785;28;20028;-76
2022/07/06 00:04:13;;;;;;;0.00;0.00;;;17.80;99.90;;;;;;5093248;28;20116;-76
2022/07/06 00:06:39;;;;;;;0.00;0.00;;;18.00;99.90;;;;;;5074260;28;20024;-77
2022/07/06 00:09:06;;;;;;;0.00;0.00;;;18.10;99.90;;;;;;5091811;28;20036;-77
2022/07/06 00:11:32;;;;;;;0.00;0.00;;;18.20;99.90;;;;;;5090612;28;20515;-77
2022/07/06 00:13:59;;;;;;;0.00;0.00;;;18.30;99.90;;;;;;5073406;28;20043;-77
2022/07/06 00:16:25;;;;;;;0.00;0.00;;;18.40;99.90;;;;;;5074339;28;20611;-77
2022/07/06 00:18:52;;;;;;;0.00;0.00;;;18.50;99.90;;;;;;5091777;28;20031;-77
2022/07/06 00:21:18;;;;;;;0.00;0.00;;;18.70;99.90;;;;;;5073415;28;20106;-77
2022/07/06 00:23:44;;;;;;;0.00;0.00;;;19.00;99.90;;;;;;5091535;28;20020;-77
2022/07/06 00:26:10;;;;;;;0.00;0.00;;;19.20;99.90;;;;;;5087029;28;20030;-77
2022/07/06 00:28:36;;;;;;;0.00;0.00;;;19.70;99.90;;;;;;5092366;28;20028;-77
2022/07/06 00:31:03;;;;;;;0.00;0.00;;;20.20;99.90;;;;;;5107635;28;20024;-77
2022/07/06 00:33:29;;;;;;;0.00;0.00;;;20.70;99.90;;;;;;5073770;28;20035;-77
2022/07/06 00:35:55;;;;;;;0.10;0.10;;;21.10;99.90;;;;;;5107613;28;20020;-77
2022/07/06 00:38:21;;;;;;;0.00;0.00;;;21.60;99.90;;;;;;5074238;28;20078;-77
2022/07/06 00:40:47;;;;;;;4.07;2.60;;;21.90;99.90;;;;;;5091954;28;20078;-77
2022/07/06 00:43:13;;;;;;;0.00;0.00;;;22.30;96.00;;;;;;5094173;28;20368;-77
2022/07/06 00:45:39;;;;;;;0.00;0.00;;;22.40;95.40;;;;;;5094537;28;20021;-76
2022/07/06 00:48:05;;;;;;;0.00;0.00;;;23.20;93.30;;;;;;5093865;28;20078;-77
2022/07/06 00:50:33;;;;;;;0.00;0.00;;;23.70;83.30;;;;;;5075019;28;20024;-77
2022/07/06 00:53:04;;;;;;;0.00;0.00;;;24.20;75.20;;;;;;5097961;28;20496;-78
2022/07/06 00:55:33;;;;;;;0.00;0.00;;;24.60;70.00;;;;;;5116410;28;20055;-77
2022/07/06 00:58:02;;;;;;;0.00;0.00;;;25.50;68.20;;;;;;5114416;27;20019;-77
2022/07/06 01:00:29;;;;;;;0.13;0.13;;;25.70;65.50;;;;;;5107343;28;20080;-77
2022/07/06 01:02:55;;;;;;;0.00;0.00;;;26.30;57.60;;;;;;5085577;28;20253;-77
2022/07/06 01:05:22;;;;;;;0.00;0.00;;;26.40;55.50;;;;;;5099921;28;20027;-78
2022/07/06 01:07:49;;;;;;;0.00;0.00;;;26.60;56.40;;;;;;5115105;28;20391;-78
2022/07/06 01:10:18;;;;;;;2.83;2.72;;;27.00;55.80;;;;;;5115042;28;20024;-78
2022/07/06 01:12:46;;;;;;;0.00;0.00;;;27.50;53.10;;;;;;5115916;28;20031;-77
2022/07/06 01:15:15;;;;;;;0.00;0.00;;;27.80;52.70;;;;;;5119003;27;20502;-76
2022/07/06 01:17:43;;;;;;;0.00;0.00;;;28.60;50.90;;;;;;5110170;27;20047;-76
2022/07/06 01:20:15;;;;;;;0.20;0.20;;;28.80;50.60;;;;;;5112271;27;20024;-77
2022/07/06 01:22:42;;;;;;;0.00;0.00;;;29.10;49.90;;;;;;5095146;28;20027;-76
2022/07/06 01:25:09;;;;;;;0.00;0.00;;;29.30;50.00;;;;;;5127677;27;20031;-77
2022/07/06 01:27:38;;;;;;;0.00;0.00;;;29.90;49.30;;;;;;5111843;28;20027;-76
2022/07/06 01:30:06;;;;;;;0.52;0.52;;;30.80;47.40;;;;;;5095926;28;20020;-77
2022/07/06 01:32:32;;;;;;;0.00;0.00;;;30.80;47.40;;;;;;5097172;28;20457;-78
2022/07/06 01:34:59;;;;;;;1.30;1.30;;;30.60;45.80;;;;;;5115386;28;20039;-77
2022/07/06 01:37:25;;;;;;;0.00;0.00;;;30.10;45.50;;;;;;5117590;27;20073;-76
2022/07/06 01:39:51;;;;;;;0.00;0.00;;;30.00;46.30;;;;;;5096798;28;20019;-76
2022/07/06 01:42:17;;;;;;;4.20;0.70;;;29.90;46.10;;;;;;5113745;28;20027;-77
2022/07/06 01:44:47;;;;;;;0.00;0.00;;;29.80;46.20;;;;;;5113138;27;20023;-76
2022/07/06 01:47:25;;;;;;;0.00;0.00;;;29.40;46.30;;;;;;5116350;28;20016;-77
2022/07/06 01:49:51;;;;;;;0.00;0.00;;;29.40;48.00;;;;;;5114808;28;20024;-78
2022/07/06 01:52:17;;;;;;;0.00;0.00;;;29.70;45.20;;;;;;5115282;28;20019;-76
2022/07/06 01:54:44;;;;;;;0.00;0.00;;;29.60;46.70;;;;;;5112287;27;20043;-75
2022/07/06 01:57:10;;;;;;;0.88;0.10;;;30.10;45.10;;;;;;5124692;27;20031;-75
2022/07/06 01:59:36;;;;;;;5.47;3.00;;;30.30;43.30;;;;;;5096398;28;20038;-76
2022/07/06 02:02:02;;;;;;;3.20;0.52;;;29.80;43.40;;;;;;5114170;28;20054;-76
2022/07/06 02:04:28;;;;;;;0.10;0.10;;;28.50;44.70;;;;;;5114471;27;20024;-78
2022/07/06 02:06:55;;;;;;;10.57;10.00;;;28.40;45.30;;;;;;5126312;27;20038;-77
2022/07/06 02:09:21;;;;;;;0.00;0.00;;;28.60;45.80;;;;;;5136459;27;20029;-78
2022/07/06 02:11:47;;;;;;;1.65;0.68;;;28.00;49.60;;;;;;5136577;27;20382;-77
2022/07/06 02:14:13;;;;;;;0.43;0.43;;;27.80;50.40;;;;;;5096699;28;20055;-78
2022/07/06 02:16:39;;;;;;;0.00;0.00;;;27.60;49.40;;;;;;5093337;28;20120;-78
2022/07/06 02:19:05;;;;;;;1.65;1.55;;;27.90;49.30;;;;;;5114378;27;20516;-76
2022/07/06 02:21:31;;;;;;;8.02;7.28;;;27.50;50.80;;;;;;5098445;28;20028;-79
2022/07/06 02:24:00;;;;;;;0.00;0.00;;;26.70;52.90;;;;;;5129376;27;20031;-79
2022/07/06 02:26:26;;;;;;;0.10;0.10;;;26.70;52.10;;;;;;5115922;28;20497;-78
2022/07/06 02:28:52;;;;;;;0.10;0.10;;;26.80;53.80;;;;;;5116815;27;20078;-78
2022/07/06 02:31:18;;;;;;;8.25;1.25;;;28.30;53.00;;;;;;5118771;27;20479;-78
2022/07/06 02:33:44;;;;;;;0.55;0.55;;;28.50;50.50;;;;;;5116705;27;20050;-77
2022/07/06 02:36:10;;;;;;;1.00;0.93;;;28.60;49.80;;;;;;5114185;28;20030;-78
2022/07/06 02:38:37;;;;;;;1.92;1.60;;;28.20;49.60;;;;;;5117942;27;20023;-79
2022/07/06 02:41:03;;;;;;;1.10;1.02;;;28.00;49.50;;;;;;5126346;27;20026;-76
2022/07/06 02:43:31;;;;;;;0.63;0.60;;;28.40;50.50;;;;;;5115734;27;20028;-79
2022/07/06 02:45:57;;;;;;;1.13;0.75;;;28.30;47.70;;;;;;5115082;27;20047;-77
2022/07/06 02:48:23;;;;;;;2.72;2.17;;;28.40;47.20;;;;;;5109070;27;20012;-77
2022/07/06 02:50:50;;;;;;;0.52;0.52;;;28.40;47.30;;;;;;5110260;27;20054;-76
2022/07/06 02:53:18;;;;;;;0.10;0.10;;;28.70;45.80;;;;;;5090593;28;20043;-77
2022/07/06 02:55:44;;;;;;;0.30;0.30;;;28.20;46.60;;;;;;5112344;27;20032;-79
2022/07/06 02:58:10;;;;;;;1.27;1.15;;;28.70;45.30;;;;;;5096845;28;20119;-78
2022/07/06 03:00:36;;;;;;;0.00;0.00;;;28.80;45.90;;;;;;5096716;28;20118;-77
2022/07/06 03:03:03;;;;;;;8.13;7.60;;;28.40;44.20;;;;;;5112295;28;20111;-77
2022/07/06 03:05:29;;;;;;;0.32;0.32;;;28.80;45.40;;;;;;5121745;27;20054;-76
2022/07/06 03:07:55;;;;;;;0.05;0.05;;;28.60;43.50;;;;;;5109689;27;20102;-79
2022/07/06 03:10:21;;;;;;;0.10;0.10;;;28.70;43.90;;;;;;5108617;27;20723;-76
2022/07/06 03:12:47;;;;;;;0.00;0.00;;;28.70;43.30;;;;;;5110959;27;20069;-79
2022/07/06 03:15:13;;;;;;;0.00;0.00;;;28.40;43.50;;;;;;5090251;28;20027;-76
2022/07/06 03:17:39;;;;;;;1.90;1.80;;;28.70;43.40;;;;;;5108479;28;20050;-77
2022/07/06 03:20:06;;;;;;;0.00;0.00;;;28.80;42.60;;;;;;5107537;28;20023;-77
2022/07/06 03:22:32;;;;;;;17.63;1.98;;;28.30;44.60;;;;;;5110767;27;20031;-78
2022/07/06 03:24:58;;;;;;;0.00;0.00;;;28.60;44.60;;;;;;5100698;28;20031;-76
2022/07/06 03:27:26;;;;;;;0.10;0.10;;;28.20;45.00;;;;;;5123428;28;20103;-84
2022/07/06 03:29:52;;;;;;;0.25;0.25;;;28.60;43.50;;;;;;5139978;27;20031;-79
2022/07/06 03:32:18;;;;;;;0.00;0.00;;;27.90;45.30;;;;;;5135414;27;20108;-82
2022/07/06 03:34:44;;;;;;;0.30;0.30;;;28.00;44.60;;;;;;5122084;27;20031;-81
2022/07/06 03:37:20;;;;;;;41.53;8.25;;;28.10;45.40;;;;;;5115318;27;20024;-80
2022/07/06 03:39:46;;;;;;;6.28;4.85;;;28.60;44.50;;;;;;5106805;28;20023;-81
2022/07/06 03:42:12;;;;;;;1.60;1.50;;;29.00;43.80;;;;;;5110726;27;20023;-82
2022/07/06 03:44:38;;;;;;;0.00;0.00;;;29.60;43.50;;;;;;5090094;28;20067;-81
2022/07/06 03:47:04;;;;;;;16.65;9.95;;;28.90;44.40;;;;;;5110145;27;20024;-80
2022/07/06 03:49:30;;;;;;;0.00;0.00;;;28.90;44.40;;;;;;5105265;27;20065;-83
2022/07/06 03:51:56;;;;;;;3.20;0.63;;;28.50;45.50;;;;;;5109347;28;20448;-83
2022/07/06 03:54:22;;;;;;;5.75;5.30;;;29.20;44.60;;;;;;5095840;28;20162;-83
2022/07/06 03:56:48;;;;;;;3.60;3.47;;;29.30;43.30;;;;;;5106718;28;20024;-82
2022/07/06 03:59:15;;;;;;;0.45;0.45;;;28.90;44.20;;;;;;5093194;28;20055;-81
2022/07/06 04:01:41;;;;;;;0.00;0.00;;;28.90;45.00;;;;;;5090233;28;20512;-80
2022/07/06 04:04:07;;;;;;;0.00;0.00;;;28.20;44.80;;;;;;5112491;28;20031;-81
2022/07/06 04:06:34;;;;;;;1.45;1.35;;;27.60;47.90;;;;;;5110237;28;20039;-83
2022/07/06 04:09:01;;;;;;;0.00;0.00;;;26.90;47.10;;;;;;5117200;28;20023;-82
2022/07/06 04:11:27;;;;;;;0.00;0.00;;;26.90;47.50;;;;;;5111183;28;20055;-83
2022/07/06 04:13:54;;;;;;;0.95;0.32;;;26.90;48.30;;;;;;5107251;28;20035;-82
2022/07/06 04:16:20;;;;;;;0.38;0.38;;;26.10;48.60;;;;;;5112464;28;20080;-83
2022/07/06 04:18:46;;;;;;;15.32;1.45;;;26.20;49.00;;;;;;5096015;27;20038;-85
2022/07/06 04:21:12;;;;;;;0.00;0.00;;;26.30;49.90;;;;;;5117232;27;20504;-83
2022/07/06 04:23:38;;;;;;;22.20;2.47;;;25.90;48.20;;;;;;5112637;27;20131;-84
2022/07/06 04:26:05;;;;;;;0.52;0.22;;;26.30;48.30;;;;;;5110846;28;20037;-85
2022/07/06 04:28:31;;;;;;;0.00;0.00;;;26.50;48.50;;;;;;5113127;27;20042;-80
2022/07/06 04:30:57;;;;;;;0.00;0.00;;;26.20;48.80;;;;;;5089399;27;20488;-82
2022/07/06 04:33:23;;;;;;;3.30;1.83;;;26.00;48.80;;;;;;5114186;27;20029;-84
2022/07/06 04:35:49;;;;;;;0.00;0.00;;;26.40;48.80;;;;;;5100208;27;20026;-87
2022/07/06 04:38:15;;;;;;;0.00;0.00;;;26.80;48.70;;;;;;5116590;27;20065;-86
2022/07/06 04:40:41;;;;;;;1.65;1.42;;;27.00;47.40;;;;;;5119919;27;20031;-84
2022/07/06 04:43:07;;;;;;;0.00;0.00;;;27.10;47.80;;;;;;5114319;27;20024;-84
2022/07/06 04:45:33;;;;;;;0.47;0.47;;;27.20;47.50;;;;;;5117724;27;20324;-84
2022/07/06 04:47:59;;;;;;;0.00;0.00;;;27.20;47.90;;;;;;5098537;28;20024;-86
2022/07/06 04:50:25;;;;;;;0.00;0.00;;;27.40;46.90;;;;;;5113413;27;20499;-84
2022/07/06 04:52:51;;;;;;;2.78;1.10;;;27.50;46.60;;;;;;5113387;27;20020;-85
2022/07/06 04:55:17;;;;;;;1.85;0.57;;;27.20;45.70;;;;;;5114737;27;20027;-81
2022/07/06 04:57:43;;;;;;;0.00;0.00;;;26.70;45.90;;;;;;5095509;28;20034;-81
2022/07/06 05:00:10;;;;;;;0.00;0.00;;;26.40;46.60;;;;;;5111818;27;20102;-82
2022/07/06 05:02:36;;;;;;;0.00;0.00;;;26.20;46.90;;;;;;5112080;27;20085;-82
2022/07/06 05:05:03;;;;;;;8.77;1.30;;;26.40;48.40;;;;;;5116051;27;20669;-81
2022/07/06 05:07:30;;;;;;;2.75;0.63;;;26.70;46.50;;;;;;5119446;27;20051;-84
2022/07/06 05:09:57;;;;;;;5.43;1.25;;;26.50;46.70;;;;;;5121037;27;20020;-78
2022/07/06 05:12:23;;;;;;;1.38;0.90;;;26.40;47.20;;;;;;5112643;28;20020;-78
2022/07/06 05:14:49;;;;;;;0.65;0.40;;;26.20;47.20;;;;;;5111613;27;20076;-84
2022/07/06 05:17:15;;;;;;;0.00;0.00;;;26.30;48.70;;;;;;5098114;28;20069;-83
2022/07/06 05:19:41;;;;;;;0.00;0.00;;;26.60;48.30;;;;;;5109889;27;20107;-79
2022/07/06 05:22:07;;;;;;;0.00;0.00;;;26.70;48.60;;;;;;5114816;27;20019;-83
2022/07/06 05:24:33;;;;;;;0.17;0.17;;;26.90;46.70;;;;;;5114196;27;20043;-80
2022/07/06 05:26:59;;;;;;;2.00;1.17;;;27.10;45.80;;;;;;5095378;28;20352;-82
2022/07/06 05:29:25;;;;;;;0.00;0.00;;;26.90;45.70;;;;;;5093037;28;20023;-81
2022/07/06 05:31:51;;;;;;;0.00;0.00;;;26.60;46.50;;;;;;5113779;27;20024;-79
2022/07/06 05:34:18;;;;;;;16.17;1.58;;;26.70;47.30;;;;;;5120524;27;20044;-80
2022/07/06 05:36:44;;;;;;;0.00;0.00;;;27.00;44.20;;;;;;5131797;27;20023;-87
2022/07/06 05:39:10;;;;;;;0.10;0.10;;;27.00;44.10;;;;;;5111869;28;20051;-80
2022/07/06 05:41:36;;;;;;;0.63;0.25;;;26.70;45.60;;;;;;5115938;27;20447;-83
2022/07/06 05:44:02;;;;;;;0.75;0.15;;;26.80;45.60;;;;;;5122917;27;20042;-83
2022/07/06 05:46:31;;;;;;;0.00;0.00;;;26.50;45.10;;;;;;5105577;27;20051;-81
2022/07/06 05:51:41;;;;;;;1.45;0.55;;;26.50;47.40;;;;;;5106156;27;20081;-84
2022/07/06 05:54:07;;;;;;;0.00;0.00;;;27.00;43.80;;;;;;5091225;28;20047;-80
2022/07/06 05:56:33;;;;;;;1.17;0.32;;;26.90;44.40;;;;;;5110362;27;20597;-80
2022/07/06 05:58:59;;;;;;;0.80;0.63;;;27.20;43.80;;;;;;5111789;27;20019;-80
2022/07/06 06:01:25;;;;;;;0.30;0.30;;;27.10;44.40;;;;;;5112586;27;20032;-80
2022/07/06 06:03:51;;;;;;;1.75;0.63;;;27.10;43.80;;;;;;5094463;28;20016;-81
2022/07/06 06:06:17;;;;;;;0.35;0.35;;;27.20;42.90;;;;;;5114461;28;20112;-81
2022/07/06 06:08:43;;;;;;;0.00;0.00;;;27.00;43.20;;;;;;5090987;28;20024;-84
2022/07/06 06:11:09;;;;;;;0.00;0.00;;;27.00;44.70;;;;;;5110128;27;20020;-84
2022/07/06 06:13:35;;;;;;;0.20;0.10;;;27.10;42.90;;;;;;5123480;27;20027;-80
2022/07/06 06:16:01;;;;;;;11.40;2.35;;;27.60;42.20;;;;;;5116608;27;20030;-82
2022/07/06 06:18:27;;;;;;;0.55;0.52;;;27.60;43.60;;;;;;5127573;27;20032;-81
2022/07/06 06:20:54;;;;;;;0.00;0.00;;;27.50;41.80;;;;;;5092056;28;20023;-80
2022/07/06 06:23:20;;;;;;;7.78;2.80;;;27.50;44.40;;;;;;5111759;27;20130;-82
2022/07/06 06:25:46;;;;;;;6.07;2.20;;;27.70;43.80;;;;;;5088579;28;20027;-79
2022/07/06 06:28:12;;;;;;;7.10;1.92;;;27.80;42.20;;;;;;5110443;28;20023;-78
2022/07/06 06:30:38;;;;;;;3.63;0.73;;;27.80;42.20;;;;;;5110993;27;20031;-79
2022/07/06 06:33:06;;;;;;;0.57;0.57;;;27.80;42.80;;;;;;5089099;28;20088;-79
2022/07/06 06:35:32;;;;;;;1.20;0.65;;;27.40;42.50;;;;;;5103665;28;20028;-78
2022/07/06 06:37:58;;;;;;;3.55;3.20;;;27.20;44.40;;;;;;5108271;28;20122;-80
2022/07/06 06:40:24;;;;;;;2.83;1.67;;;27.60;44.30;;;;;;5109487;28;20059;-82
2022/07/06 06:42:50;;;;;;;1.75;1.08;;;27.90;42.90;;;;;;5087867;28;20498;-80
2022/07/06 06:45:16;;;;;;;1.45;0.35;;;27.60;43.20;;;;;;5114554;27;20024;-79
2022/07/06 06:47:42;;;;;;;1.55;1.17;;;28.00;42.60;;;;;;5125263;27;20028;-77
2022/07/06 06:50:08;;;;;;;3.03;0.98;;;28.00;42.50;;;;;;5114604;28;20030;-80
2022/07/06 06:52:34;;;;;;;9.15;1.00;;;27.80;42.50;;;;;;5094207;28;20035;-78
2022/07/06 06:55:00;;;;;;;1.95;0.95;;;27.60;42.50;;;;;;5108494;28;20047;-83
2022/07/06 06:57:28;;;;;;;5.13;2.42;;;27.80;42.00;;;;;;5112190;28;20046;-81
2022/07/06 06:59:55;;;;;;;0.35;0.35;;;27.60;42.20;;;;;;5090618;28;20118;-82
2022/07/06 07:02:21;;;;;;;9.45;1.80;;;27.70;42.70;;;;;;5088584;28;20036;-81
2022/07/06 07:04:47;;;;;;;1.52;0.65;;;27.90;42.70;;;;;;5087431;28;20506;-77
2022/07/06 07:07:13;;;;;;;0.00;0.00;;;27.90;42.20;;;;;;5086936;28;20091;-81
2022/07/06 07:09:39;;;;;;;9.93;0.70;;;27.80;42.40;;;;;;5090182;28;20150;-81
2022/07/06 07:12:05;;;;;;;1.65;0.30;;;27.70;43.30;;;;;;5090311;28;20065;-80
2022/07/06 07:14:32;;;;;;;0.00;0.00;;;27.90;42.70;;;;;;5088516;28;20031;-79
2022/07/06 07:16:58;;;;;;;0.00;0.00;;;28.00;42.10;;;;;;5086485;28;21171;-79
2022/07/06 07:19:27;;;;;;;3.03;2.40;;;28.10;41.80;;;;;;5087162;28;20027;-80
2022/07/06 07:21:53;;;;;;;0.25;0.25;;;28.10;41.90;;;;;;5088231;28;20435;-77
2022/07/06 07:24:19;;;;;;;9.50;3.20;;;28.30;41.60;;;;;;5084807;28;20432;-81
2022/07/06 07:26:45;;;;;;;2.20;2.00;;;28.50;42.50;;;;;;5088552;28;20085;-84
2022/07/06 07:29:17;;;;;;;3.40;2.45;;;28.50;42.20;;;;;;5088925;28;20024;-81
2022/07/06 07:31:43;;;;;;;0.52;0.15;;;28.50;43.20;;;;;;5089050;28;20162;-81
2022/07/06 07:34:09;;;;;;;10.02;1.50;;;28.60;42.00;;;;;;5120785;27;20077;-81
2022/07/06 07:36:35;;;;;;;8.02;3.38;;;28.70;41.60;;;;;;5092397;28;20024;-78
2022/07/06 07:39:02;;;;;;;5.28;3.10;;;28.60;41.40;;;;;;5089000;28;20099;-78
2022/07/06 07:41:28;;;;;;;0.00;0.00;;;28.30;41.80;;;;;;5088639;28;20031;-82
2022/07/06 07:43:54;;;;;;;2.17;0.63;;;28.10;43.10;;;;;;5087693;28;20036;-78
2022/07/06 07:46:20;;;;;;;4.38;1.90;;;28.40;42.80;;;;;;5088167;28;20024;-77
2022/07/06 07:48:46;;;;;;;16.17;3.17;;;28.10;43.40;;;;;;5091151;28;20024;-78
2022/07/06 07:51:12;;;;;;;1.58;1.40;;;28.50;43.10;;;;;;5088982;28;20023;-79
2022/07/06 07:53:38;;;;;;;2.10;1.13;;;28.80;42.40;;;;;;5088946;28;20188;-78
2022/07/06 07:56:05;;;;;;;12.40;1.70;;;29.20;42.30;;;;;;5085884;28;20023;-78
2022/07/06 07:58:31;;;;;;;7.40;2.17;;;29.20;42.20;;;;;;5099622;28;20102;-79
2022/07/06 08:00:57;;;;;;;23.92;6.20;;;28.90;42.80;;;;;;5087674;28;20055;-80
2022/07/06 08:03:23;;;;;;;4.97;1.85;;;29.10;43.20;;;;;;5088471;28;20028;-81
2022/07/06 08:05:50;;;;;;;7.18;1.63;;;29.30;42.20;;;;;;5090053;28;20028;-83
2022/07/06 08:08:16;;;;;;;0.00;0.00;;;29.20;42.00;;;;;;5090469;28;20107;-82
2022/07/06 08:10:43;;;;;;;0.43;0.43;;;29.10;42.30;;;;;;5089235;28;20077;-81
2022/07/06 08:13:10;;;;;;;3.22;0.55;;;28.80;41.90;;;;;;5090335;28;20476;-76
2022/07/06 08:15:37;;;;;;;2.42;1.10;;;29.10;42.00;;;;;;5087764;28;20077;-80
2022/07/06 08:18:04;;;;;;;3.05;1.35;;;29.20;41.30;;;;;;5090103;28;20065;-82
2022/07/06 08:20:30;;;;;;;11.07;1.35;;;29.10;41.30;;;;;;5094485;28;20036;-81
2022/07/06 08:22:56;;;;;;;2.33;0.68;;;29.20;41.80;;;;;;5091859;28;20020;-82
2022/07/06 08:25:22;;;;;;;9.77;3.63;;;29.10;41.70;;;;;;5089919;28;20476;-81
2022/07/06 08:27:48;;;;;;;2.10;1.95;;;29.20;41.50;;;;;;5092212;28;20067;-80
2022/07/06 08:30:14;;;;;;;4.32;1.92;;;28.70;42.60;;;;;;5092138;28;20020;-81
2022/07/06 08:32:44;;;;;;;0.95;0.82;;;29.20;40.50;;;;;;5113436;28;20092;-84
2022/07/06 08:35:10;;;;;;;0.30;0.30;;;29.30;39.70;;;;;;5092438;28;20024;-82
2022/07/06 08:37:36;;;;;;;4.85;0.47;;;29.20;40.20;;;;;;5100825;28;20028;-83
2022/07/06 08:40:04;;;;;;;5.35;2.20;;;29.20;40.00;;;;;;5089477;28;20031;-81
2022/07/06 08:42:32;;;;;;;0.25;0.25;;;29.20;40.20;;;;;;5085375;28;21609;-80
2022/07/06 08:45:05;;;;;;;15.98;4.90;;;29.50;40.30;;;;;;5084365;28;20028;-80
2022/07/06 08:47:32;;;;;;;0.85;0.20;;;29.70;40.40;;;;;;5085699;28;20074;-84
2022/07/06 08:49:58;;;;;;;0.00;0.00;;;29.70;38.80;;;;;;5088658;28;20027;-81
2022/07/06 08:52:48;;;;;;;1.17;0.73;;;29.60;38.30;;;;;;5087061;28;20083;-80
2022/07/06 08:55:15;;;;;;;4.85;1.73;;;29.20;41.40;;;;;;5116123;28;20044;-80
2022/07/06 08:57:43;;;;;;;1.83;1.73;;;29.50;41.00;;;;;;5086676;28;20032;-78
2022/07/06 09:00:09;;;;;;;2.38;0.25;;;29.40;40.60;;;;;;5086670;28;20032;-78
2022/07/06 09:02:37;;;;;;;0.00;0.00;;;29.50;40.40;;;;;;5085921;28;20103;-81
2022/07/06 09:05:04;;;;;;;0.00;0.00;;;29.60;40.90;;;;;;5089975;28;20024;-80
2022/07/06 09:07:30;;;;;;;1.92;0.88;;;29.70;40.90;;;;;;5094151;28;20111;-78
2022/07/06 09:09:59;;;;;;;2.65;2.13;;;29.80;40.60;;;;;;5093052;28;20040;-79
2022/07/06 09:12:28;;;;;;;3.72;1.33;;;29.80;40.40;;;;;;5088930;28;20158;-80
2022/07/06 09:14:56;;;;;;;0.80;0.10;;;29.80;40.10;;;;;;5090960;28;20031;-79
2022/07/06 09:17:26;;;;;;;0.45;0.45;;;29.50;42.00;;;;;;5089352;28;20107;-78
2022/07/06 09:19:53;;;;;;;10.00;3.63;;;29.50;40.90;;;;;;5090091;28;20032;-78
2022/07/06 09:22:31;;;;;;;0.00;0.00;;;29.80;40.40;;;;;;5089081;28;20520;-77
2022/07/06 09:25:12;;;;;;;2.65;0.75;;;30.10;41.20;;;;;;5089014;28;20028;-78
2022/07/06 09:27:45;;;;;;;2.70;0.95;;;30.20;38.80;;;;;;5088264;28;20357;-82
2022/07/06 09:30:12;;;;;;;9.13;0.90;;;29.90;40.00;;;;;;5092570;28;20016;-82
2022/07/06 09:32:40;;;;;;;2.72;1.00;;;29.90;40.40;;;;;;5089593;28;20384;-81
2022/07/06 09:35:07;;;;;;;1.65;0.45;;;30.10;38.70;;;;;;5087679;28;20036;-82
2022/07/06 09:37:33;;;;;;;0.43;0.30;;;30.00;39.40;;;;;;5084628;28;20082;-82
2022/07/06 09:39:59;;;;;;;0.35;0.32;;;30.10;37.50;;;;;;5083851;28;20035;-81
2022/07/06 09:42:26;;;;;;;0.47;0.47;;;30.00;37.80;;;;;;5088434;28;20036;-79
2022/07/06 09:44:53;;;;;;;16.83;5.68;;;30.10;38.50;;;;;;5088323;28;20357;-78
2022/07/06 09:47:19;;;;;;;7.22;6.55;;;30.10;38.50;;;;;;5087835;28;20017;-80
2022/07/06 09:49:49;;;;;;;0.47;0.43;;;30.10;37.80;;;;;;5090801;28;20020;-77
2022/07/06 09:52:15;;;;;;;1.17;1.15;;;30.10;37.60;;;;;;5087665;28;20062;-76
2022/07/06 09:54:41;;;;;;;3.38;3.13;;;30.30;37.40;;;;;;5090092;28;20631;-77
2022/07/06 09:57:08;;;;;;;0.85;0.30;;;30.20;38.50;;;;;;5094638;28;20043;-75
2022/07/06 09:59:35;;;;;;;0.00;0.00;;;30.10;38.60;;;;;;5095860;28;20112;-75
2022/07/06 10:02:04;;;;;;;0.28;0.28;;;29.90;38.50;;;;;;5092475;28;20020;-78
2022/07/06 10:04:30;;;;;;;0.28;0.28;;;30.10;38.00;;;;;;5089786;28;20035;-76
2022/07/06 10:06:58;;;;;;;0.38;0.32;;;30.20;36.20;;;;;;5093693;28;20028;-76
2022/07/06 10:09:26;;;;;;;1.17;0.30;;;30.50;34.00;;;;;;5076925;28;20059;-77
2022/07/06 10:12:02;;;;;;;0.00;0.00;;;30.40;30.70;;;;;;5095420;28;20020;-75
2022/07/06 10:14:30;;;;;;;0.00;0.00;;;30.50;32.40;;;;;;5099616;28;20081;-77
2022/07/06 10:16:58;;;;;;;0.00;0.00;;;30.60;32.50;;;;;;5073775;28;20465;-80
2022/07/06 10:19:25;;;;;;;0.00;0.00;;;30.60;30.80;;;;;;5074032;28;20480;-81
2022/07/06 10:21:52;;;;;;;0.00;0.00;;;30.50;29.30;;;;;;5091603;28;20028;-80
2022/07/06 10:24:20;;;;;;;0.30;0.30;;;30.40;29.00;;;;;;5091068;28;20464;-77
2022/07/06 10:26:48;;;;;;;0.00;0.00;;;30.30;30.00;;;;;;5091735;28;20073;-77
2022/07/06 10:29:17;;;;;;;0.00;0.00;;;30.50;30.10;;;;;;5073849;28;20036;-77
2022/07/06 10:31:50;;;;;;;0.00;0.00;;;30.50;30.00;;;;;;5077929;28;20530;-77
2022/07/06 10:34:19;;;;;;;0.00;0.00;;;30.60;30.20;;;;;;5091864;28;20032;-77
2022/07/06 10:36:50;;;;;;;2.53;2.40;;;30.40;32.20;;;;;;5089327;28;20065;-77
2022/07/06 10:42:58;;;;;;;0.03;0.03;;;30.10;33.60;;;;;;5088030;28;20115;-76
2022/07/06 10:45:30;;;;;;;0.00;0.00;;;29.90;33.70;;;;;;5028018;28;20207;-75
2022/07/06 10:48:11;;;;;;;0.00;0.00;;;30.10;34.80;;;;;;5084940;28;20143;-77
2022/07/06 10:50:43;;;;;;;0.00;0.00;;;30.30;34.40;;;;;;5106969;28;20032;-78
2022/07/06 10:53:23;;;;;;;0.00;0.00;;;30.10;33.70;;;;;;5075046;28;20032;-77
2022/07/06 10:55:52;;;;;;;0.00;0.00;;;30.10;33.30;;;;;;5081458;28;20088;-80
2022/07/06 10:58:51;;;;;;;0.28;0.28;;;30.10;33.30;;;;;;5094169;28;20107;-80
2022/07/06 11:01:20;;;;;;;3.33;2.10;;;30.30;33.70;;;;;;5061324;28;20096;-78
2022/07/06 11:04:04;;;;;;;0.00;0.00;;;30.50;32.70;;;;;;5093643;28;20020;-79
2022/07/06 11:06:34;;;;;;;0.73;0.73;;;30.50;32.00;;;;;;5074807;28;20077;-79
2022/07/06 11:09:02;;;;;;;0.00;0.00;;;30.30;33.10;;;;;;5081902;28;20051;-80
2022/07/06 11:11:31;;;;;;;0.00;0.00;;;30.10;33.30;;;;;;5097441;28;20026;-79
2022/07/06 11:14:08;;;;;;;0.00;0.00;;;30.00;33.50;;;;;;5093794;28;20024;-78
2022/07/06 11:16:48;;;;;;;0.20;0.20;;;29.80;34.20;;;;;;5096265;28;20379;-78
2022/07/06 11:19:23;;;;;;;0.00;0.00;;;29.80;35.20;;;;;;5081358;28;20145;-78
2022/07/06 11:21:57;;;;;;;0.00;0.00;;;29.70;34.60;;;;;;5082916;28;20051;-79
2022/07/06 11:24:34;;;;;;;0.10;0.10;;;29.80;35.10;;;;;;5101134;28;20102;-77
2022/07/06 11:27:01;;;;;;;0.00;0.00;;;30.00;36.30;;;;;;5071201;28;20123;-78
2022/07/06 11:29:29;;;;;;;1.55;1.45;;;30.00;37.30;;;;;;5101838;28;20599;-79
2022/07/06 11:32:00;;;;;;;0.00;0.00;;;30.10;38.30;;;;;;5093496;28;20030;-80
2022/07/06 11:34:29;;;;;;;0.30;0.30;;;29.90;38.40;;;;;;5098631;28;20035;-78
2022/07/06 11:36:57;;;;;;;0.00;0.00;;;29.90;38.10;;;;;;5082195;28;20552;-78
2022/07/06 11:39:27;;;;;;;0.00;0.00;;;29.80;39.00;;;;;;5095382;28;20112;-77
2022/07/06 11:41:58;;;;;;;0.00;0.00;;;30.10;38.70;;;;;;5107016;28;20020;-78
2022/07/06 11:44:25;;;;;;;0.00;0.00;;;30.30;38.80;;;;;;5087651;28;20029;-79
2022/07/06 11:46:51;;;;;;;0.00;0.00;;;30.20;38.70;;;;;;5071659;28;20020;-79
2022/07/06 11:49:17;;;;;;;2.50;2.42;;;30.20;38.70;;;;;;5088842;28;20476;-79
2022/07/06 11:51:46;;;;;;;0.10;0.10;;;30.20;38.80;;;;;;5099062;28;20032;-79
2022/07/06 11:54:16;;;;;;;0.00;0.00;;;29.90;39.60;;;;;;5076696;28;20071;-79
2022/07/06 11:57:03;;;;;;;0.00;0.00;;;29.90;38.80;;;;;;5088099;28;20084;-78
2022/07/06 11:59:34;;;;;;;0.00;0.00;;;29.70;38.80;;;;;;5119720;28;20056;-78
2022/07/06 12:02:08;;;;;;;0.00;0.00;;;29.80;37.60;;;;;;5097839;28;20507;-79
2022/07/06 12:04:36;;;;;;;0.00;0.00;;;30.10;36.70;;;;;;5100958;28;20020;-79
2022/07/06 12:07:06;;;;;;;0.00;0.00;;;30.10;36.20;;;;;;5118567;28;20024;-79
2022/07/06 12:09:33;;;;;;;0.20;0.20;;;29.80;37.20;;;;;;5101539;28;20377;-80
2022/07/06 12:12:02;;;;;;;0.00;0.00;;;29.70;37.90;;;;;;5096996;28;20024;-79
2022/07/06 12:14:30;;;;;;;0.00;0.00;;;29.80;37.80;;;;;;5088148;28;20500;-78
2022/07/06 12:16:56;;;;;;;0.00;0.00;;;29.90;37.80;;;;;;5089154;28;20024;-81
2022/07/06 12:19:23;;;;;;;0.00;0.00;;;29.70;37.70;;;;;;5088150;28;20089;-80
2022/07/06 12:21:51;;;;;;;7.82;7.18;;;29.70;38.40;;;;;;5090061;28;20028;-80
2022/07/06 12:24:22;;;;;;;0.00;0.00;;;29.80;38.50;;;;;;5091832;28;20288;-80
2022/07/06 12:26:49;;;;;;;0.00;0.00;;;29.80;38.90;;;;;;5091939;28;20042;-81
2022/07/06 12:29:17;;;;;;;0.00;0.00;;;29.80;38.30;;;;;;5091810;28;20055;-80
2022/07/06 12:31:56;;;;;;;0.00;0.00;;;29.90;38.40;;;;;;5089412;28;20059;-80
2022/07/06 12:34:24;;;;;;;0.00;0.00;;;29.90;37.00;;;;;;5084313;28;20028;-80
2022/07/06 12:36:55;;;;;;;0.00;0.00;;;29.90;38.10;;;;;;5090962;28;20024;-79
2022/07/06 12:39:26;;;;;;;0.10;0.10;;;29.80;36.20;;;;;;5094780;28;20023;-80
2022/07/06 12:42:06;;;;;;;0.00;0.00;;;29.70;36.10;;;;;;5094637;28;20119;-80
2022/07/06 12:44:32;;;;;;;0.00;0.00;;;29.80;35.80;;;;;;5094162;28;20032;-80
2022/07/06 12:47:03;;;;;;;0.00;0.00;;;29.80;36.60;;;;;;5094562;28;20085;-82
2022/07/06 12:49:30;;;;;;;0.00;0.00;;;29.80;36.00;;;;;;5096285;28;20031;-78
2022/07/06 12:51:57;;;;;;;0.08;0.08;;;29.70;35.90;;;;;;5093853;28;20036;-79
2022/07/06 12:54:25;;;;;;;0.00;0.00;;;29.60;36.80;;;;;;5090224;28;20528;-79